sensor_id;sensor_type;location;lat;lon;timestamp;P1;durP1;ratioP1;P2;durP2;ratioP2
19191;SDS011;9728;48.194;16.346;2022-12-18T00:03:02;3.80;;;2.47;;
19191;SDS011;9728;48.194;16.346;2022-12-18T00:08:06;4.53;;;2.50;;
19191;SDS011;9728;48.194;16.346;2022-12-18T00:13:10;3.80;;;2.70;;
19191;SDS011;9728;48.194;16.346;2022-12-18T00:18:15;3.53;;;2.67;;
19191;SDS011;9728;48.194;16.346;2022-12-18T00:23:21;4.60;;;2.90;;
19191;SDS011;9728;48.194;16.346;2022-12-18T00:28:24;3.57;;;2.73;;
19191;SDS011;9728;48.194;16.346;2022-12-18T00:33:29;5.57;;;2.93;;
19191;SDS011;9728;48.194;16.346;2022-12-18T00:38:32;3.73;;;2.30;;
19191;SDS011;9728;48.194;16.346;2022-12-18T00:43:36;3.53;;;2.60;;
19191;SDS011;9728;48.194;16.346;2022-12-18T00:48:43;4.37;;;2.70;;
19191;SDS011;9728;48.194;16.346;2022-12-18T00:53:46;3.53;;;2.10;;
19191;SDS011;9728;48.194;16.346;2022-12-18T00:58:49;2.77;;;2.00;;
19191;SDS011;9728;48.194;16.346;2022-12-18T01:03:54;4.77;;;2.60;;
19191;SDS011;9728;48.194;16.346;2022-12-18T01:08:58;3.40;;;2.50;;
19191;SDS011;9728;48.194;16.346;2022-12-18T01:14:01;2.90;;;1.90;;
19191;SDS011;9728;48.194;16.346;2022-12-18T01:19:06;4.30;;;2.87;;
19191;SDS011;9728;48.194;16.346;2022-12-18T01:24:10;3.77;;;2.70;;
19191;SDS011;9728;48.194;16.346;2022-12-18T01:29:15;5.83;;;3.30;;
19191;SDS011;9728;48.194;16.346;2022-12-18T01:34:20;5.47;;;3.07;;
19191;SDS011;9728;48.194;16.346;2022-12-18T01:39:23;9.17;;;4.27;;
19191;SDS011;9728;48.194;16.346;2022-12-18T01:50:12;7.57;;;4.27;;
19191;SDS011;9728;48.194;16.346;2022-12-18T01:55:18;6.47;;;3.70;;
19191;SDS011;9728;48.194;16.346;2022-12-18T02:00:25;7.23;;;4.30;;
19191;SDS011;9728;48.194;16.346;2022-12-18T02:05:34;7.43;;;4.60;;
19191;SDS011;9728;48.194;16.346;2022-12-18T02:10:47;7.27;;;4.23;;
19191;SDS011;9728;48.194;16.346;2022-12-18T02:16:01;8.60;;;4.13;;
19191;SDS011;9728;48.194;16.346;2022-12-18T02:21:18;6.53;;;4.23;;
19191;SDS011;9728;48.194;16.346;2022-12-18T02:26:33;8.80;;;4.67;;
19191;SDS011;9728;48.194;16.346;2022-12-18T02:31:42;6.70;;;4.10;;
19191;SDS011;9728;48.194;16.346;2022-12-18T02:36:48;7.83;;;4.90;;
19191;SDS011;9728;48.194;16.346;2022-12-18T02:41:55;8.67;;;5.00;;
19191;SDS011;9728;48.194;16.346;2022-12-18T02:47:00;9.27;;;5.30;;
19191;SDS011;9728;48.194;16.346;2022-12-18T02:52:05;8.53;;;5.20;;
19191;SDS011;9728;48.194;16.346;2022-12-18T02:57:20;7.97;;;4.50;;
19191;SDS011;9728;48.194;16.346;2022-12-18T03:02:35;6.83;;;4.30;;
19191;SDS011;9728;48.194;16.346;2022-12-18T03:07:42;7.87;;;4.83;;
19191;SDS011;9728;48.194;16.346;2022-12-18T03:12:52;7.97;;;5.07;;
19191;SDS011;9728;48.194;16.346;2022-12-18T03:17:59;9.57;;;5.60;;
19191;SDS011;9728;48.194;16.346;2022-12-18T03:23:07;9.30;;;4.90;;
19191;SDS011;9728;48.194;16.346;2022-12-18T03:28:19;8.93;;;5.33;;
19191;SDS011;9728;48.194;16.346;2022-12-18T03:33:32;9.97;;;5.13;;
19191;SDS011;9728;48.194;16.346;2022-12-18T03:38:41;8.80;;;5.20;;
19191;SDS011;9728;48.194;16.346;2022-12-18T03:43:48;9.53;;;5.43;;
19191;SDS011;9728;48.194;16.346;2022-12-18T03:48:59;11.33;;;5.70;;
19191;SDS011;9728;48.194;16.346;2022-12-18T03:54:09;10.10;;;5.50;;
19191;SDS011;9728;48.194;16.346;2022-12-18T03:59:23;8.67;;;4.63;;
19191;SDS011;9728;48.194;16.346;2022-12-18T04:04:30;10.70;;;5.07;;
19191;SDS011;9728;48.194;16.346;2022-12-18T04:09:38;8.70;;;4.93;;
19191;SDS011;9728;48.194;16.346;2022-12-18T04:14:45;10.07;;;4.70;;
19191;SDS011;9728;48.194;16.346;2022-12-18T04:19:48;7.97;;;5.20;;
19191;SDS011;9728;48.194;16.346;2022-12-18T04:24:52;10.53;;;5.57;;
19191;SDS011;9728;48.194;16.346;2022-12-18T04:30:05;11.20;;;5.50;;
19191;SDS011;9728;48.194;16.346;2022-12-18T04:35:09;8.97;;;5.50;;
19191;SDS011;9728;48.194;16.346;2022-12-18T04:40:16;10.47;;;6.03;;
19191;SDS011;9728;48.194;16.346;2022-12-18T04:45:23;13.23;;;5.90;;
19191;SDS011;9728;48.194;16.346;2022-12-18T04:50:26;12.30;;;6.10;;
19191;SDS011;9728;48.194;16.346;2022-12-18T04:55:30;10.93;;;5.57;;
19191;SDS011;9728;48.194;16.346;2022-12-18T05:00:35;11.97;;;6.07;;
19191;SDS011;9728;48.194;16.346;2022-12-18T05:05:38;8.33;;;4.93;;
19191;SDS011;9728;48.194;16.346;2022-12-18T05:10:41;8.40;;;4.67;;
19191;SDS011;9728;48.194;16.346;2022-12-18T05:15:52;6.30;;;4.13;;
19191;SDS011;9728;48.194;16.346;2022-12-18T05:20:56;8.43;;;4.67;;
19191;SDS011;9728;48.194;16.346;2022-12-18T05:26:01;10.00;;;4.83;;
19191;SDS011;9728;48.194;16.346;2022-12-18T05:31:07;8.57;;;4.30;;
19191;SDS011;9728;48.194;16.346;2022-12-18T05:36:11;9.77;;;5.50;;
19191;SDS011;9728;48.194;16.346;2022-12-18T05:41:15;7.57;;;4.53;;
19191;SDS011;9728;48.194;16.346;2022-12-18T05:46:20;8.30;;;4.73;;
19191;SDS011;9728;48.194;16.346;2022-12-18T05:51:23;8.83;;;5.00;;
19191;SDS011;9728;48.194;16.346;2022-12-18T05:56:26;7.80;;;4.53;;
19191;SDS011;9728;48.194;16.346;2022-12-18T06:01:31;8.57;;;5.10;;
19191;SDS011;9728;48.194;16.346;2022-12-18T06:06:34;8.13;;;4.83;;
19191;SDS011;9728;48.194;16.346;2022-12-18T06:11:39;9.07;;;5.33;;
19191;SDS011;9728;48.194;16.346;2022-12-18T06:16:44;7.00;;;4.63;;
19191;SDS011;9728;48.194;16.346;2022-12-18T06:21:47;9.13;;;5.27;;
19191;SDS011;9728;48.194;16.346;2022-12-18T06:26:50;8.60;;;5.20;;
19191;SDS011;9728;48.194;16.346;2022-12-18T06:31:55;9.33;;;5.37;;
19191;SDS011;9728;48.194;16.346;2022-12-18T06:36:58;9.80;;;5.40;;
19191;SDS011;9728;48.194;16.346;2022-12-18T06:42:02;8.20;;;4.57;;
19191;SDS011;9728;48.194;16.346;2022-12-18T06:47:07;9.40;;;5.70;;
19191;SDS011;9728;48.194;16.346;2022-12-18T06:52:11;7.43;;;5.17;;
19191;SDS011;9728;48.194;16.346;2022-12-18T06:57:14;8.00;;;5.43;;
19191;SDS011;9728;48.194;16.346;2022-12-18T07:02:19;11.10;;;6.17;;
19191;SDS011;9728;48.194;16.346;2022-12-18T07:07:22;9.30;;;5.23;;
19191;SDS011;9728;48.194;16.346;2022-12-18T07:12:26;9.97;;;6.10;;
19191;SDS011;9728;48.194;16.346;2022-12-18T07:17:31;9.50;;;5.57;;
19191;SDS011;9728;48.194;16.346;2022-12-18T07:22:34;9.80;;;5.57;;
19191;SDS011;9728;48.194;16.346;2022-12-18T07:27:37;12.13;;;6.30;;
19191;SDS011;9728;48.194;16.346;2022-12-18T07:32:42;10.73;;;5.73;;
19191;SDS011;9728;48.194;16.346;2022-12-18T07:37:45;14.03;;;6.70;;
19191;SDS011;9728;48.194;16.346;2022-12-18T07:42:48;13.30;;;7.20;;
19191;SDS011;9728;48.194;16.346;2022-12-18T07:47:53;13.57;;;7.40;;
19191;SDS011;9728;48.194;16.346;2022-12-18T07:52:57;14.20;;;7.03;;
19191;SDS011;9728;48.194;16.346;2022-12-18T07:58:04;12.93;;;6.80;;
19191;SDS011;9728;48.194;16.346;2022-12-18T08:03:09;14.27;;;7.33;;
19191;SDS011;9728;48.194;16.346;2022-12-18T08:08:13;17.80;;;8.60;;
19191;SDS011;9728;48.194;16.346;2022-12-18T08:13:21;12.20;;;6.77;;
19191;SDS011;9728;48.194;16.346;2022-12-18T08:18:26;12.97;;;6.60;;
19191;SDS011;9728;48.194;16.346;2022-12-18T08:23:30;11.87;;;6.87;;
19191;SDS011;9728;48.194;16.346;2022-12-18T08:28:38;11.67;;;7.23;;
19191;SDS011;9728;48.194;16.346;2022-12-18T08:33:43;15.83;;;8.00;;
19191;SDS011;9728;48.194;16.346;2022-12-18T08:38:47;15.70;;;8.00;;
19191;SDS011;9728;48.194;16.346;2022-12-18T08:43:50;14.83;;;8.07;;
19191;SDS011;9728;48.194;16.346;2022-12-18T08:49:12;15.23;;;7.80;;
19191;SDS011;9728;48.194;16.346;2022-12-18T08:54:16;16.37;;;8.57;;
19191;SDS011;9728;48.194;16.346;2022-12-18T08:59:19;17.43;;;9.37;;
19191;SDS011;9728;48.194;16.346;2022-12-18T09:04:24;15.70;;;8.13;;
19191;SDS011;9728;48.194;16.346;2022-12-18T09:09:27;16.47;;;9.27;;
19191;SDS011;9728;48.194;16.346;2022-12-18T09:14:30;17.47;;;8.90;;
19191;SDS011;9728;48.194;16.346;2022-12-18T09:19:36;16.87;;;8.47;;
19191;SDS011;9728;48.194;16.346;2022-12-18T09:24:39;17.27;;;8.10;;
19191;SDS011;9728;48.194;16.346;2022-12-18T09:29:42;20.27;;;9.47;;
19191;SDS011;9728;48.194;16.346;2022-12-18T09:34:47;16.23;;;8.80;;
19191;SDS011;9728;48.194;16.346;2022-12-18T09:39:50;17.30;;;8.57;;
19191;SDS011;9728;48.194;16.346;2022-12-18T09:44:54;15.57;;;7.77;;
19191;SDS011;9728;48.194;16.346;2022-12-18T09:49:59;14.93;;;7.33;;
19191;SDS011;9728;48.194;16.346;2022-12-18T09:55:09;16.27;;;8.47;;
19191;SDS011;9728;48.194;16.346;2022-12-18T10:00:21;15.80;;;7.43;;
19191;SDS011;9728;48.194;16.346;2022-12-18T10:05:29;15.40;;;8.17;;
19191;SDS011;9728;48.194;16.346;2022-12-18T10:10:41;16.50;;;8.40;;
19191;SDS011;9728;48.194;16.346;2022-12-18T10:16:03;13.27;;;6.70;;
19191;SDS011;9728;48.194;16.346;2022-12-18T10:21:15;15.67;;;7.47;;
19191;SDS011;9728;48.194;16.346;2022-12-18T10:26:22;14.53;;;7.67;;
19191;SDS011;9728;48.194;16.346;2022-12-18T10:31:25;15.63;;;7.93;;
19191;SDS011;9728;48.194;16.346;2022-12-18T10:36:30;14.73;;;7.53;;
19191;SDS011;9728;48.194;16.346;2022-12-18T10:41:34;17.27;;;8.83;;
19191;SDS011;9728;48.194;16.346;2022-12-18T10:46:37;13.57;;;7.90;;
19191;SDS011;9728;48.194;16.346;2022-12-18T10:51:42;13.30;;;6.97;;
19191;SDS011;9728;48.194;16.346;2022-12-18T10:56:46;11.67;;;6.47;;
19191;SDS011;9728;48.194;16.346;2022-12-18T11:01:50;12.57;;;6.87;;
19191;SDS011;9728;48.194;16.346;2022-12-18T11:06:59;13.67;;;6.17;;
19191;SDS011;9728;48.194;16.346;2022-12-18T11:12:05;14.53;;;7.70;;
19191;SDS011;9728;48.194;16.346;2022-12-18T11:17:19;12.27;;;6.37;;
19191;SDS011;9728;48.194;16.346;2022-12-18T11:22:29;11.57;;;6.60;;
19191;SDS011;9728;48.194;16.346;2022-12-18T11:27:33;13.90;;;7.20;;
19191;SDS011;9728;48.194;16.346;2022-12-18T11:32:37;11.47;;;6.07;;
19191;SDS011;9728;48.194;16.346;2022-12-18T11:37:45;14.57;;;7.33;;
19191;SDS011;9728;48.194;16.346;2022-12-18T11:42:54;16.27;;;7.63;;
19191;SDS011;9728;48.194;16.346;2022-12-18T11:48:04;13.90;;;7.47;;
19191;SDS011;9728;48.194;16.346;2022-12-18T11:53:19;12.90;;;6.83;;
19191;SDS011;9728;48.194;16.346;2022-12-18T11:58:29;17.63;;;8.63;;
19191;SDS011;9728;48.194;16.346;2022-12-18T12:09:37;16.90;;;8.20;;
19191;SDS011;9728;48.194;16.346;2022-12-18T12:14:49;15.47;;;8.27;;
19191;SDS011;9728;48.194;16.346;2022-12-18T12:20:00;13.43;;;6.93;;
19191;SDS011;9728;48.194;16.346;2022-12-18T12:25:18;13.20;;;6.67;;
19191;SDS011;9728;48.194;16.346;2022-12-18T12:30:30;15.23;;;7.20;;
19191;SDS011;9728;48.194;16.346;2022-12-18T12:35:44;14.87;;;7.13;;
19191;SDS011;9728;48.194;16.346;2022-12-18T12:40:54;18.80;;;9.03;;
19191;SDS011;9728;48.194;16.346;2022-12-18T12:46:04;17.67;;;8.40;;
19191;SDS011;9728;48.194;16.346;2022-12-18T12:51:11;15.80;;;8.20;;
19191;SDS011;9728;48.194;16.346;2022-12-18T12:56:20;15.73;;;8.40;;
19191;SDS011;9728;48.194;16.346;2022-12-18T13:01:27;14.63;;;8.03;;
19191;SDS011;9728;48.194;16.346;2022-12-18T13:06:39;14.47;;;7.43;;
19191;SDS011;9728;48.194;16.346;2022-12-18T13:11:48;11.10;;;6.20;;
19191;SDS011;9728;48.194;16.346;2022-12-18T13:17:16;16.20;;;8.47;;
19191;SDS011;9728;48.194;16.346;2022-12-18T13:22:33;19.03;;;9.73;;
19191;SDS011;9728;48.194;16.346;2022-12-18T13:27:47;17.73;;;8.40;;
19191;SDS011;9728;48.194;16.346;2022-12-18T13:44:39;15.90;;;8.20;;
19191;SDS011;9728;48.194;16.346;2022-12-18T13:49:45;12.90;;;6.70;;
19191;SDS011;9728;48.194;16.346;2022-12-18T13:54:50;12.87;;;6.80;;
19191;SDS011;9728;48.194;16.346;2022-12-18T13:59:57;14.27;;;8.03;;
19191;SDS011;9728;48.194;16.346;2022-12-18T14:05:01;15.93;;;8.43;;
19191;SDS011;9728;48.194;16.346;2022-12-18T14:10:11;17.23;;;8.83;;
19191;SDS011;9728;48.194;16.346;2022-12-18T14:15:40;15.23;;;7.73;;
19191;SDS011;9728;48.194;16.346;2022-12-18T14:20:46;14.40;;;7.63;;
19191;SDS011;9728;48.194;16.346;2022-12-18T14:25:53;19.17;;;9.63;;
19191;SDS011;9728;48.194;16.346;2022-12-18T14:31:15;17.20;;;8.57;;
19191;SDS011;9728;48.194;16.346;2022-12-18T14:36:21;21.33;;;9.63;;
19191;SDS011;9728;48.194;16.346;2022-12-18T14:41:26;21.80;;;10.40;;
19191;SDS011;9728;48.194;16.346;2022-12-18T14:46:34;21.13;;;8.93;;
19191;SDS011;9728;48.194;16.346;2022-12-18T14:51:39;22.57;;;9.53;;
19191;SDS011;9728;48.194;16.346;2022-12-18T14:56:50;22.23;;;10.10;;
19191;SDS011;9728;48.194;16.346;2022-12-18T15:02:04;18.83;;;9.37;;
19191;SDS011;9728;48.194;16.346;2022-12-18T15:07:20;21.47;;;10.07;;
19191;SDS011;9728;48.194;16.346;2022-12-18T15:12:27;21.67;;;10.40;;
19191;SDS011;9728;48.194;16.346;2022-12-18T15:17:39;24.13;;;11.07;;
19191;SDS011;9728;48.194;16.346;2022-12-18T15:22:43;22.30;;;10.20;;
19191;SDS011;9728;48.194;16.346;2022-12-18T15:27:51;24.83;;;10.70;;
19191;SDS011;9728;48.194;16.346;2022-12-18T15:38:29;19.77;;;9.70;;
19191;SDS011;9728;48.194;16.346;2022-12-18T15:43:33;21.67;;;10.50;;
19191;SDS011;9728;48.194;16.346;2022-12-18T15:48:45;21.70;;;10.17;;
19191;SDS011;9728;48.194;16.346;2022-12-18T15:53:52;22.63;;;10.30;;
19191;SDS011;9728;48.194;16.346;2022-12-18T15:58:59;26.87;;;11.83;;
19191;SDS011;9728;48.194;16.346;2022-12-18T16:04:12;23.87;;;11.00;;
19191;SDS011;9728;48.194;16.346;2022-12-18T16:09:20;21.83;;;9.97;;
19191;SDS011;9728;48.194;16.346;2022-12-18T16:14:28;23.07;;;10.33;;
19191;SDS011;9728;48.194;16.346;2022-12-18T16:19:35;19.40;;;9.97;;
19191;SDS011;9728;48.194;16.346;2022-12-18T16:24:39;19.53;;;9.43;;
19191;SDS011;9728;48.194;16.346;2022-12-18T16:29:45;19.17;;;9.57;;
19191;SDS011;9728;48.194;16.346;2022-12-18T16:34:52;18.33;;;8.03;;
19191;SDS011;9728;48.194;16.346;2022-12-18T16:39:57;17.67;;;9.63;;
19191;SDS011;9728;48.194;16.346;2022-12-18T16:45:02;15.60;;;7.93;;
19191;SDS011;9728;48.194;16.346;2022-12-18T16:50:09;19.10;;;8.67;;
19191;SDS011;9728;48.194;16.346;2022-12-18T16:55:14;17.53;;;8.27;;
19191;SDS011;9728;48.194;16.346;2022-12-18T17:00:19;21.77;;;10.20;;
19191;SDS011;9728;48.194;16.346;2022-12-18T17:05:26;16.93;;;8.00;;
19191;SDS011;9728;48.194;16.346;2022-12-18T17:10:38;18.10;;;8.30;;
19191;SDS011;9728;48.194;16.346;2022-12-18T17:15:43;16.70;;;8.03;;
19191;SDS011;9728;48.194;16.346;2022-12-18T17:20:54;19.23;;;8.13;;
19191;SDS011;9728;48.194;16.346;2022-12-18T17:26:03;17.07;;;8.90;;
19191;SDS011;9728;48.194;16.346;2022-12-18T17:31:10;18.63;;;8.90;;
19191;SDS011;9728;48.194;16.346;2022-12-18T17:36:19;14.27;;;7.90;;
19191;SDS011;9728;48.194;16.346;2022-12-18T17:41:25;16.37;;;8.00;;
19191;SDS011;9728;48.194;16.346;2022-12-18T17:46:32;14.30;;;8.10;;
19191;SDS011;9728;48.194;16.346;2022-12-18T17:51:38;16.73;;;8.53;;
19191;SDS011;9728;48.194;16.346;2022-12-18T17:56:44;13.37;;;7.00;;
19191;SDS011;9728;48.194;16.346;2022-12-18T18:01:50;15.33;;;8.43;;
19191;SDS011;9728;48.194;16.346;2022-12-18T18:06:58;14.37;;;7.87;;
19191;SDS011;9728;48.194;16.346;2022-12-18T18:12:03;14.40;;;7.87;;
19191;SDS011;9728;48.194;16.346;2022-12-18T18:17:26;19.00;;;9.50;;
19191;SDS011;9728;48.194;16.346;2022-12-18T18:22:35;12.83;;;7.80;;
19191;SDS011;9728;48.194;16.346;2022-12-18T18:27:40;13.40;;;6.80;;
19191;SDS011;9728;48.194;16.346;2022-12-18T18:32:48;12.93;;;6.73;;
19191;SDS011;9728;48.194;16.346;2022-12-18T18:37:56;12.57;;;6.50;;
19191;SDS011;9728;48.194;16.346;2022-12-18T18:43:01;13.50;;;7.07;;
19191;SDS011;9728;48.194;16.346;2022-12-18T18:48:07;13.50;;;6.50;;
19191;SDS011;9728;48.194;16.346;2022-12-18T18:53:14;12.57;;;6.40;;
19191;SDS011;9728;48.194;16.346;2022-12-18T18:58:19;13.93;;;7.63;;
19191;SDS011;9728;48.194;16.346;2022-12-18T19:03:24;10.57;;;6.37;;
19191;SDS011;9728;48.194;16.346;2022-12-18T19:08:31;16.80;;;8.70;;
19191;SDS011;9728;48.194;16.346;2022-12-18T19:13:38;14.30;;;7.23;;
19191;SDS011;9728;48.194;16.346;2022-12-18T19:18:43;12.67;;;6.93;;
19191;SDS011;9728;48.194;16.346;2022-12-18T19:23:50;12.73;;;6.60;;
19191;SDS011;9728;48.194;16.346;2022-12-18T19:29:01;17.87;;;9.03;;
19191;SDS011;9728;48.194;16.346;2022-12-18T19:34:07;18.33;;;8.47;;
19191;SDS011;9728;48.194;16.346;2022-12-18T19:39:14;15.03;;;7.73;;
19191;SDS011;9728;48.194;16.346;2022-12-18T19:44:21;16.40;;;8.57;;
19191;SDS011;9728;48.194;16.346;2022-12-18T19:49:26;13.90;;;7.17;;
19191;SDS011;9728;48.194;16.346;2022-12-18T19:54:33;14.50;;;7.47;;
19191;SDS011;9728;48.194;16.346;2022-12-18T19:59:38;13.10;;;6.77;;
19191;SDS011;9728;48.194;16.346;2022-12-18T20:04:46;15.17;;;7.70;;
19191;SDS011;9728;48.194;16.346;2022-12-18T20:09:51;12.40;;;6.33;;
19191;SDS011;9728;48.194;16.346;2022-12-18T20:15:06;12.13;;;6.70;;
19191;SDS011;9728;48.194;16.346;2022-12-18T20:20:11;13.63;;;7.13;;
19191;SDS011;9728;48.194;16.346;2022-12-18T20:25:17;15.60;;;6.87;;
19191;SDS011;9728;48.194;16.346;2022-12-18T20:30:24;12.47;;;6.70;;
19191;SDS011;9728;48.194;16.346;2022-12-18T20:35:30;12.73;;;6.37;;
19191;SDS011;9728;48.194;16.346;2022-12-18T20:40:42;13.60;;;6.37;;
19191;SDS011;9728;48.194;16.346;2022-12-18T20:45:46;14.17;;;7.30;;
19191;SDS011;9728;48.194;16.346;2022-12-18T20:50:55;12.73;;;6.80;;
19191;SDS011;9728;48.194;16.346;2022-12-18T20:56:06;12.37;;;6.87;;
19191;SDS011;9728;48.194;16.346;2022-12-18T21:01:12;13.20;;;7.30;;
19191;SDS011;9728;48.194;16.346;2022-12-18T21:06:17;14.20;;;6.97;;
19191;SDS011;9728;48.194;16.346;2022-12-18T21:11:26;14.00;;;7.90;;
19191;SDS011;9728;48.194;16.346;2022-12-18T21:16:49;14.50;;;7.67;;
19191;SDS011;9728;48.194;16.346;2022-12-18T21:21:53;17.57;;;7.47;;
19191;SDS011;9728;48.194;16.346;2022-12-18T21:26:59;14.37;;;7.90;;
19191;SDS011;9728;48.194;16.346;2022-12-18T21:32:03;13.87;;;7.77;;
19191;SDS011;9728;48.194;16.346;2022-12-18T21:37:09;14.83;;;7.23;;
19191;SDS011;9728;48.194;16.346;2022-12-18T21:42:15;13.93;;;7.97;;
19191;SDS011;9728;48.194;16.346;2022-12-18T21:47:36;16.43;;;8.17;;
19191;SDS011;9728;48.194;16.346;2022-12-18T21:52:39;14.57;;;8.43;;
19191;SDS011;9728;48.194;16.346;2022-12-18T21:57:44;14.47;;;8.00;;
19191;SDS011;9728;48.194;16.346;2022-12-18T22:02:47;14.13;;;8.03;;
19191;SDS011;9728;48.194;16.346;2022-12-18T22:08:11;14.97;;;8.30;;
19191;SDS011;9728;48.194;16.346;2022-12-18T22:13:16;14.40;;;7.23;;
19191;SDS011;9728;48.194;16.346;2022-12-18T22:18:20;16.97;;;8.63;;
19191;SDS011;9728;48.194;16.346;2022-12-18T22:23:23;16.13;;;8.23;;
19191;SDS011;9728;48.194;16.346;2022-12-18T22:28:28;16.87;;;8.57;;
19191;SDS011;9728;48.194;16.346;2022-12-18T22:33:49;15.47;;;8.60;;
19191;SDS011;9728;48.194;16.346;2022-12-18T22:38:52;14.77;;;7.73;;
19191;SDS011;9728;48.194;16.346;2022-12-18T22:43:57;15.63;;;8.10;;
19191;SDS011;9728;48.194;16.346;2022-12-18T22:49:01;15.33;;;8.07;;
19191;SDS011;9728;48.194;16.346;2022-12-18T22:54:04;16.27;;;7.83;;
19191;SDS011;9728;48.194;16.346;2022-12-18T22:59:11;16.13;;;8.10;;
19191;SDS011;9728;48.194;16.346;2022-12-18T23:04:20;15.83;;;8.20;;
19191;SDS011;9728;48.194;16.346;2022-12-18T23:09:27;12.93;;;7.23;;
19191;SDS011;9728;48.194;16.346;2022-12-18T23:14:36;14.67;;;7.33;;
19191;SDS011;9728;48.194;16.346;2022-12-18T23:19:39;15.00;;;8.10;;
19191;SDS011;9728;48.194;16.346;2022-12-18T23:24:49;15.13;;;7.43;;
19191;SDS011;9728;48.194;16.346;2022-12-18T23:29:54;12.20;;;6.87;;
19191;SDS011;9728;48.194;16.346;2022-12-18T23:35:00;13.73;;;7.03;;
19191;SDS011;9728;48.194;16.346;2022-12-18T23:40:09;16.50;;;8.37;;
19191;SDS011;9728;48.194;16.346;2022-12-18T23:45:16;12.20;;;6.43;;
19191;SDS011;9728;48.194;16.346;2022-12-18T23:50:23;15.73;;;7.63;;
19191;SDS011;9728;48.194;16.346;2022-12-18T23:55:32;11.90;;;7.03;;
